sensor_id;sensor_type;location;lat;lon;timestamp;P1;durP1;ratioP1;P2;durP2;ratioP2
53666;SDS011;39568;51.026;5.468;2022-10-15T00:00:52;37.88;;;20.48;;
53666;SDS011;39568;51.026;5.468;2022-10-15T00:03:19;31.63;;;19.13;;
53666;SDS011;39568;51.026;5.468;2022-10-15T00:05:47;29.58;;;19.67;;
53666;SDS011;39568;51.026;5.468;2022-10-15T00:08:18;31.27;;;18.65;;
53666;SDS011;39568;51.026;5.468;2022-10-15T00:10:45;31.10;;;20.52;;
53666;SDS011;39568;51.026;5.468;2022-10-15T00:13:12;34.75;;;19.75;;
53666;SDS011;39568;51.026;5.468;2022-10-15T00:15:39;30.60;;;19.38;;
53666;SDS011;39568;51.026;5.468;2022-10-15T00:18:05;28.58;;;17.90;;
53666;SDS011;39568;51.026;5.468;2022-10-15T00:20:32;27.83;;;18.85;;
53666;SDS011;39568;51.026;5.468;2022-10-15T00:23:00;28.70;;;16.98;;
53666;SDS011;39568;51.026;5.468;2022-10-15T00:25:26;25.77;;;18.02;;
53666;SDS011;39568;51.026;5.468;2022-10-15T00:27:53;30.70;;;19.23;;
53666;SDS011;39568;51.026;5.468;2022-10-15T00:30:20;23.70;;;16.33;;
53666;SDS011;39568;51.026;5.468;2022-10-15T00:32:46;32.45;;;18.95;;
53666;SDS011;39568;51.026;5.468;2022-10-15T00:35:13;31.08;;;19.63;;
53666;SDS011;39568;51.026;5.468;2022-10-15T00:37:40;29.13;;;18.58;;
53666;SDS011;39568;51.026;5.468;2022-10-15T00:40:10;27.70;;;19.70;;
53666;SDS011;39568;51.026;5.468;2022-10-15T00:42:39;26.67;;;17.65;;
53666;SDS011;39568;51.026;5.468;2022-10-15T00:45:07;30.90;;;18.52;;
53666;SDS011;39568;51.026;5.468;2022-10-15T00:47:38;33.92;;;19.35;;
53666;SDS011;39568;51.026;5.468;2022-10-15T00:50:06;24.98;;;18.58;;
53666;SDS011;39568;51.026;5.468;2022-10-15T00:52:39;24.27;;;16.60;;
53666;SDS011;39568;51.026;5.468;2022-10-15T00:55:13;27.83;;;18.23;;
53666;SDS011;39568;51.026;5.468;2022-10-15T01:00:13;25.98;;;17.60;;
53666;SDS011;39568;51.026;5.468;2022-10-15T01:02:42;22.45;;;17.55;;
53666;SDS011;39568;51.026;5.468;2022-10-15T01:05:10;27.58;;;18.33;;
53666;SDS011;39568;51.026;5.468;2022-10-15T01:07:38;27.02;;;16.83;;
53666;SDS011;39568;51.026;5.468;2022-10-15T01:10:05;27.92;;;15.80;;
53666;SDS011;39568;51.026;5.468;2022-10-15T01:12:38;27.48;;;15.95;;
53666;SDS011;39568;51.026;5.468;2022-10-15T01:15:14;27.37;;;16.33;;
53666;SDS011;39568;51.026;5.468;2022-10-15T01:17:49;24.80;;;17.10;;
53666;SDS011;39568;51.026;5.468;2022-10-15T01:20:33;28.75;;;16.98;;
53666;SDS011;39568;51.026;5.468;2022-10-15T01:23:13;27.15;;;18.25;;
53666;SDS011;39568;51.026;5.468;2022-10-15T01:26:00;35.55;;;19.35;;
53666;SDS011;39568;51.026;5.468;2022-10-15T01:28:41;28.98;;;17.23;;
53666;SDS011;39568;51.026;5.468;2022-10-15T01:31:17;28.30;;;18.08;;
53666;SDS011;39568;51.026;5.468;2022-10-15T01:33:51;31.83;;;19.25;;
53666;SDS011;39568;51.026;5.468;2022-10-15T01:36:28;32.85;;;18.55;;
53666;SDS011;39568;51.026;5.468;2022-10-15T01:38:59;31.27;;;18.98;;
53666;SDS011;39568;51.026;5.468;2022-10-15T01:41:33;30.98;;;19.25;;
53666;SDS011;39568;51.026;5.468;2022-10-15T01:44:07;30.13;;;18.42;;
53666;SDS011;39568;51.026;5.468;2022-10-15T01:46:39;27.40;;;20.02;;
53666;SDS011;39568;51.026;5.468;2022-10-15T01:49:13;28.75;;;19.02;;
53666;SDS011;39568;51.026;5.468;2022-10-15T01:51:45;36.63;;;18.00;;
53666;SDS011;39568;51.026;5.468;2022-10-15T01:54:19;32.30;;;19.40;;
53666;SDS011;39568;51.026;5.468;2022-10-15T01:56:48;37.55;;;20.05;;
53666;SDS011;39568;51.026;5.468;2022-10-15T01:59:17;28.25;;;18.02;;
53666;SDS011;39568;51.026;5.468;2022-10-15T02:01:48;32.17;;;18.80;;
53666;SDS011;39568;51.026;5.468;2022-10-15T02:04:18;31.08;;;19.23;;
53666;SDS011;39568;51.026;5.468;2022-10-15T02:06:47;33.28;;;21.15;;
53666;SDS011;39568;51.026;5.468;2022-10-15T02:09:20;32.10;;;19.75;;
53666;SDS011;39568;51.026;5.468;2022-10-15T02:11:59;40.47;;;21.55;;
53666;SDS011;39568;51.026;5.468;2022-10-15T02:14:35;39.60;;;22.02;;
53666;SDS011;39568;51.026;5.468;2022-10-15T02:17:09;39.25;;;20.67;;
53666;SDS011;39568;51.026;5.468;2022-10-15T02:19:39;32.50;;;20.27;;
53666;SDS011;39568;51.026;5.468;2022-10-15T02:22:13;39.17;;;21.92;;
53666;SDS011;39568;51.026;5.468;2022-10-15T02:27:18;42.33;;;22.38;;
53666;SDS011;39568;51.026;5.468;2022-10-15T02:29:46;44.17;;;23.55;;
53666;SDS011;39568;51.026;5.468;2022-10-15T02:32:16;41.20;;;24.27;;
53666;SDS011;39568;51.026;5.468;2022-10-15T02:34:46;45.67;;;24.83;;
53666;SDS011;39568;51.026;5.468;2022-10-15T02:37:13;44.22;;;22.88;;
53666;SDS011;39568;51.026;5.468;2022-10-15T02:39:45;41.53;;;25.42;;
53666;SDS011;39568;51.026;5.468;2022-10-15T02:42:12;43.60;;;24.95;;
53666;SDS011;39568;51.026;5.468;2022-10-15T02:44:42;46.20;;;25.45;;
53666;SDS011;39568;51.026;5.468;2022-10-15T02:47:09;49.00;;;25.08;;
53666;SDS011;39568;51.026;5.468;2022-10-15T02:49:37;48.20;;;27.23;;
53666;SDS011;39568;51.026;5.468;2022-10-15T02:52:04;53.75;;;28.77;;
53666;SDS011;39568;51.026;5.468;2022-10-15T02:54:31;55.58;;;26.27;;
53666;SDS011;39568;51.026;5.468;2022-10-15T02:56:57;62.75;;;25.42;;
53666;SDS011;39568;51.026;5.468;2022-10-15T02:59:24;54.22;;;27.10;;
53666;SDS011;39568;51.026;5.468;2022-10-15T03:01:51;54.72;;;27.00;;
53666;SDS011;39568;51.026;5.468;2022-10-15T03:04:17;64.10;;;28.08;;
53666;SDS011;39568;51.026;5.468;2022-10-15T03:06:45;55.08;;;25.83;;
53666;SDS011;39568;51.026;5.468;2022-10-15T03:09:12;55.78;;;28.42;;
53666;SDS011;39568;51.026;5.468;2022-10-15T03:11:39;65.40;;;27.63;;
53666;SDS011;39568;51.026;5.468;2022-10-15T03:14:11;62.63;;;30.20;;
53666;SDS011;39568;51.026;5.468;2022-10-15T03:16:38;48.08;;;26.13;;
53666;SDS011;39568;51.026;5.468;2022-10-15T03:19:05;54.67;;;30.33;;
53666;SDS011;39568;51.026;5.468;2022-10-15T03:21:31;51.55;;;27.70;;
53666;SDS011;39568;51.026;5.468;2022-10-15T03:23:59;45.10;;;25.10;;
53666;SDS011;39568;51.026;5.468;2022-10-15T03:26:29;45.42;;;22.90;;
53666;SDS011;39568;51.026;5.468;2022-10-15T03:28:55;46.95;;;24.35;;
53666;SDS011;39568;51.026;5.468;2022-10-15T03:31:22;47.47;;;23.10;;
53666;SDS011;39568;51.026;5.468;2022-10-15T03:33:49;44.55;;;24.10;;
53666;SDS011;39568;51.026;5.468;2022-10-15T03:36:15;50.00;;;23.25;;
53666;SDS011;39568;51.026;5.468;2022-10-15T03:38:42;41.30;;;22.98;;
53666;SDS011;39568;51.026;5.468;2022-10-15T03:41:10;41.50;;;23.67;;
53666;SDS011;39568;51.026;5.468;2022-10-15T03:43:36;47.85;;;24.83;;
53666;SDS011;39568;51.026;5.468;2022-10-15T03:46:04;49.97;;;24.10;;
53666;SDS011;39568;51.026;5.468;2022-10-15T03:48:33;44.83;;;24.15;;
53666;SDS011;39568;51.026;5.468;2022-10-15T03:50:59;48.30;;;23.95;;
53666;SDS011;39568;51.026;5.468;2022-10-15T03:53:26;52.97;;;24.52;;
53666;SDS011;39568;51.026;5.468;2022-10-15T03:55:53;48.90;;;23.63;;
53666;SDS011;39568;51.026;5.468;2022-10-15T03:58:21;51.53;;;23.73;;
53666;SDS011;39568;51.026;5.468;2022-10-15T04:00:47;45.90;;;23.63;;
53666;SDS011;39568;51.026;5.468;2022-10-15T04:03:14;50.97;;;24.38;;
53666;SDS011;39568;51.026;5.468;2022-10-15T04:05:41;48.40;;;22.58;;
53666;SDS011;39568;51.026;5.468;2022-10-15T04:08:07;50.90;;;24.00;;
53666;SDS011;39568;51.026;5.468;2022-10-15T04:10:34;45.45;;;23.70;;
53666;SDS011;39568;51.026;5.468;2022-10-15T04:13:00;44.47;;;23.35;;
53666;SDS011;39568;51.026;5.468;2022-10-15T04:15:34;49.45;;;23.45;;
53666;SDS011;39568;51.026;5.468;2022-10-15T04:18:04;55.47;;;25.00;;
53666;SDS011;39568;51.026;5.468;2022-10-15T04:20:30;45.75;;;24.30;;
53666;SDS011;39568;51.026;5.468;2022-10-15T04:22:57;60.75;;;25.13;;
53666;SDS011;39568;51.026;5.468;2022-10-15T04:25:24;45.75;;;22.60;;
53666;SDS011;39568;51.026;5.468;2022-10-15T04:27:50;52.10;;;25.17;;
53666;SDS011;39568;51.026;5.468;2022-10-15T04:30:17;50.22;;;25.25;;
53666;SDS011;39568;51.026;5.468;2022-10-15T04:32:53;49.83;;;23.17;;
53666;SDS011;39568;51.026;5.468;2022-10-15T04:35:20;46.45;;;23.13;;
53666;SDS011;39568;51.026;5.468;2022-10-15T04:37:47;50.17;;;24.88;;
53666;SDS011;39568;51.026;5.468;2022-10-15T04:40:14;49.97;;;23.13;;
53666;SDS011;39568;51.026;5.468;2022-10-15T04:42:44;48.80;;;21.63;;
53666;SDS011;39568;51.026;5.468;2022-10-15T04:45:10;42.13;;;18.67;;
53666;SDS011;39568;51.026;5.468;2022-10-15T04:47:37;47.10;;;23.35;;
53666;SDS011;39568;51.026;5.468;2022-10-15T04:50:05;52.90;;;22.42;;
53666;SDS011;39568;51.026;5.468;2022-10-15T04:52:32;53.45;;;23.25;;
53666;SDS011;39568;51.026;5.468;2022-10-15T04:54:59;53.85;;;23.38;;
53666;SDS011;39568;51.026;5.468;2022-10-15T04:57:27;53.50;;;23.88;;
53666;SDS011;39568;51.026;5.468;2022-10-15T04:59:54;53.22;;;24.10;;
53666;SDS011;39568;51.026;5.468;2022-10-15T05:02:20;54.00;;;23.58;;
53666;SDS011;39568;51.026;5.468;2022-10-15T05:04:47;57.40;;;22.83;;
53666;SDS011;39568;51.026;5.468;2022-10-15T05:07:19;59.10;;;24.80;;
53666;SDS011;39568;51.026;5.468;2022-10-15T05:09:47;85.40;;;38.50;;
53666;SDS011;39568;51.026;5.468;2022-10-15T05:12:14;169.43;;;82.22;;
53666;SDS011;39568;51.026;5.468;2022-10-15T05:14:40;157.35;;;96.97;;
53666;SDS011;39568;51.026;5.468;2022-10-15T05:17:07;57.55;;;25.63;;
53666;SDS011;39568;51.026;5.468;2022-10-15T05:19:34;70.43;;;32.40;;
53666;SDS011;39568;51.026;5.468;2022-10-15T05:22:03;170.00;;;93.03;;
53666;SDS011;39568;51.026;5.468;2022-10-15T05:24:32;212.02;;;116.10;;
53666;SDS011;39568;51.026;5.468;2022-10-15T05:26:59;72.55;;;30.02;;
53666;SDS011;39568;51.026;5.468;2022-10-15T05:29:36;79.93;;;34.38;;
53666;SDS011;39568;51.026;5.468;2022-10-15T05:32:03;59.25;;;29.02;;
53666;SDS011;39568;51.026;5.468;2022-10-15T05:34:30;81.55;;;38.20;;
53666;SDS011;39568;51.026;5.468;2022-10-15T05:37:01;69.95;;;32.15;;
53666;SDS011;39568;51.026;5.468;2022-10-15T05:39:28;63.50;;;26.05;;
53666;SDS011;39568;51.026;5.468;2022-10-15T05:41:56;59.50;;;23.45;;
53666;SDS011;39568;51.026;5.468;2022-10-15T05:44:30;42.40;;;21.52;;
53666;SDS011;39568;51.026;5.468;2022-10-15T05:46:57;41.40;;;19.70;;
53666;SDS011;39568;51.026;5.468;2022-10-15T05:49:37;41.03;;;20.75;;
53666;SDS011;39568;51.026;5.468;2022-10-15T05:52:05;44.13;;;20.75;;
53666;SDS011;39568;51.026;5.468;2022-10-15T05:54:32;43.08;;;19.83;;
53666;SDS011;39568;51.026;5.468;2022-10-15T05:57:05;47.05;;;21.15;;
53666;SDS011;39568;51.026;5.468;2022-10-15T05:59:46;41.35;;;21.88;;
53666;SDS011;39568;51.026;5.468;2022-10-15T06:02:12;36.45;;;19.33;;
53666;SDS011;39568;51.026;5.468;2022-10-15T06:04:43;37.30;;;19.77;;
53666;SDS011;39568;51.026;5.468;2022-10-15T06:07:10;45.15;;;21.85;;
53666;SDS011;39568;51.026;5.468;2022-10-15T06:09:38;38.58;;;19.15;;
53666;SDS011;39568;51.026;5.468;2022-10-15T06:12:06;37.22;;;18.30;;
53666;SDS011;39568;51.026;5.468;2022-10-15T06:14:32;39.25;;;17.23;;
53666;SDS011;39568;51.026;5.468;2022-10-15T06:16:59;29.90;;;15.75;;
53666;SDS011;39568;51.026;5.468;2022-10-15T06:19:25;28.00;;;13.93;;
53666;SDS011;39568;51.026;5.468;2022-10-15T06:21:52;22.45;;;11.75;;
53666;SDS011;39568;51.026;5.468;2022-10-15T06:24:30;20.95;;;10.63;;
53666;SDS011;39568;51.026;5.468;2022-10-15T06:26:57;26.55;;;12.18;;
53666;SDS011;39568;51.026;5.468;2022-10-15T06:29:25;17.77;;;9.45;;
53666;SDS011;39568;51.026;5.468;2022-10-15T06:31:54;19.38;;;10.95;;
53666;SDS011;39568;51.026;5.468;2022-10-15T06:34:21;17.98;;;10.80;;
53666;SDS011;39568;51.026;5.468;2022-10-15T06:36:47;18.08;;;10.80;;
53666;SDS011;39568;51.026;5.468;2022-10-15T06:39:14;13.65;;;10.00;;
53666;SDS011;39568;51.026;5.468;2022-10-15T06:41:41;13.25;;;8.27;;
53666;SDS011;39568;51.026;5.468;2022-10-15T06:44:07;19.13;;;9.63;;
53666;SDS011;39568;51.026;5.468;2022-10-15T06:46:36;13.10;;;8.63;;
53666;SDS011;39568;51.026;5.468;2022-10-15T06:49:02;22.75;;;10.43;;
53666;SDS011;39568;51.026;5.468;2022-10-15T06:51:29;30.35;;;16.65;;
53666;SDS011;39568;51.026;5.468;2022-10-15T06:53:56;13.65;;;8.77;;
53666;SDS011;39568;51.026;5.468;2022-10-15T06:56:22;17.40;;;9.27;;
53666;SDS011;39568;51.026;5.468;2022-10-15T06:58:49;12.13;;;8.50;;
53666;SDS011;39568;51.026;5.468;2022-10-15T07:01:19;14.90;;;8.57;;
53666;SDS011;39568;51.026;5.468;2022-10-15T07:03:50;13.52;;;8.57;;
53666;SDS011;39568;51.026;5.468;2022-10-15T07:06:17;11.82;;;7.88;;
53666;SDS011;39568;51.026;5.468;2022-10-15T07:08:44;8.10;;;6.80;;
53666;SDS011;39568;51.026;5.468;2022-10-15T07:11:11;8.73;;;6.18;;
53666;SDS011;39568;51.026;5.468;2022-10-15T07:13:37;11.48;;;7.88;;
53666;SDS011;39568;51.026;5.468;2022-10-15T07:16:04;12.40;;;7.03;;
53666;SDS011;39568;51.026;5.468;2022-10-15T07:18:32;9.40;;;6.78;;
53666;SDS011;39568;51.026;5.468;2022-10-15T07:21:01;10.00;;;8.00;;
53666;SDS011;39568;51.026;5.468;2022-10-15T07:23:27;14.98;;;6.53;;
53666;SDS011;39568;51.026;5.468;2022-10-15T07:25:55;14.52;;;5.95;;
53666;SDS011;39568;51.026;5.468;2022-10-15T07:28:23;7.57;;;6.60;;
53666;SDS011;39568;51.026;5.468;2022-10-15T07:30:49;10.63;;;6.78;;
53666;SDS011;39568;51.026;5.468;2022-10-15T07:33:17;6.32;;;5.43;;
53666;SDS011;39568;51.026;5.468;2022-10-15T07:35:48;6.72;;;5.38;;
53666;SDS011;39568;51.026;5.468;2022-10-15T07:38:16;10.52;;;5.97;;
53666;SDS011;39568;51.026;5.468;2022-10-15T07:40:43;5.25;;;4.65;;
53666;SDS011;39568;51.026;5.468;2022-10-15T07:43:10;6.07;;;5.22;;
53666;SDS011;39568;51.026;5.468;2022-10-15T07:45:37;11.90;;;5.57;;
53666;SDS011;39568;51.026;5.468;2022-10-15T07:48:04;5.28;;;4.68;;
53666;SDS011;39568;51.026;5.468;2022-10-15T07:50:31;5.97;;;5.30;;
53666;SDS011;39568;51.026;5.468;2022-10-15T07:52:58;7.43;;;5.95;;
53666;SDS011;39568;51.026;5.468;2022-10-15T07:55:30;4.65;;;4.25;;
53666;SDS011;39568;51.026;5.468;2022-10-15T07:57:56;5.40;;;4.90;;
53666;SDS011;39568;51.026;5.468;2022-10-15T08:03:05;4.60;;;3.50;;
53666;SDS011;39568;51.026;5.468;2022-10-15T08:05:32;7.38;;;3.60;;
53666;SDS011;39568;51.026;5.468;2022-10-15T08:07:59;3.88;;;3.28;;
53666;SDS011;39568;51.026;5.468;2022-10-15T08:10:26;4.45;;;2.92;;
53666;SDS011;39568;51.026;5.468;2022-10-15T08:13:01;3.83;;;3.15;;
53666;SDS011;39568;51.026;5.468;2022-10-15T08:15:28;2.25;;;2.15;;
53666;SDS011;39568;51.026;5.468;2022-10-15T08:17:54;8.93;;;2.63;;
53666;SDS011;39568;51.026;5.468;2022-10-15T08:20:21;4.53;;;3.67;;
53666;SDS011;39568;51.026;5.468;2022-10-15T08:22:47;4.90;;;3.90;;
53666;SDS011;39568;51.026;5.468;2022-10-15T08:25:14;2.95;;;2.75;;
53666;SDS011;39568;51.026;5.468;2022-10-15T08:27:42;3.67;;;2.75;;
53666;SDS011;39568;51.026;5.468;2022-10-15T08:30:10;4.32;;;1.90;;
53666;SDS011;39568;51.026;5.468;2022-10-15T08:32:37;2.10;;;2.00;;
53666;SDS011;39568;51.026;5.468;2022-10-15T08:35:04;2.97;;;2.83;;
53666;SDS011;39568;51.026;5.468;2022-10-15T08:37:31;2.38;;;2.28;;
53666;SDS011;39568;51.026;5.468;2022-10-15T08:39:59;3.30;;;2.17;;
53666;SDS011;39568;51.026;5.468;2022-10-15T08:42:28;4.45;;;3.67;;
53666;SDS011;39568;51.026;5.468;2022-10-15T08:45:01;2.10;;;1.95;;
53666;SDS011;39568;51.026;5.468;2022-10-15T08:47:33;2.35;;;2.25;;
53666;SDS011;39568;51.026;5.468;2022-10-15T08:50:05;1.90;;;1.80;;
53666;SDS011;39568;51.026;5.468;2022-10-15T08:52:42;2.63;;;1.98;;
53666;SDS011;39568;51.026;5.468;2022-10-15T08:55:13;2.53;;;2.33;;
53666;SDS011;39568;51.026;5.468;2022-10-15T08:57:42;2.22;;;2.13;;
53666;SDS011;39568;51.026;5.468;2022-10-15T09:00:13;4.47;;;3.03;;
53666;SDS011;39568;51.026;5.468;2022-10-15T09:02:47;15.40;;;12.15;;
53666;SDS011;39568;51.026;5.468;2022-10-15T09:05:23;3.35;;;3.15;;
53666;SDS011;39568;51.026;5.468;2022-10-15T09:07:55;6.50;;;5.80;;
53666;SDS011;39568;51.026;5.468;2022-10-15T09:10:30;2.30;;;2.20;;
53666;SDS011;39568;51.026;5.468;2022-10-15T09:13:03;2.90;;;2.45;;
53666;SDS011;39568;51.026;5.468;2022-10-15T09:15:36;1.98;;;1.58;;
53666;SDS011;39568;51.026;5.468;2022-10-15T09:18:17;1.48;;;1.48;;
53666;SDS011;39568;51.026;5.468;2022-10-15T09:20:47;4.57;;;1.35;;
53666;SDS011;39568;51.026;5.468;2022-10-15T09:23:15;1.45;;;1.20;;
53666;SDS011;39568;51.026;5.468;2022-10-15T09:25:44;1.02;;;1.00;;
53666;SDS011;39568;51.026;5.468;2022-10-15T09:30:43;2.15;;;1.00;;
53666;SDS011;39568;51.026;5.468;2022-10-15T09:33:21;0.57;;;0.57;;
53666;SDS011;39568;51.026;5.468;2022-10-15T09:36:00;1.15;;;0.60;;
53666;SDS011;39568;51.026;5.468;2022-10-15T09:38:35;0.88;;;0.80;;
53666;SDS011;39568;51.026;5.468;2022-10-15T09:41:12;1.70;;;0.50;;
53666;SDS011;39568;51.026;5.468;2022-10-15T09:43:47;6.25;;;1.25;;
53666;SDS011;39568;51.026;5.468;2022-10-15T09:46:16;0.60;;;0.60;;
53666;SDS011;39568;51.026;5.468;2022-10-15T09:48:46;0.50;;;0.50;;
53666;SDS011;39568;51.026;5.468;2022-10-15T09:51:19;0.63;;;0.50;;
53666;SDS011;39568;51.026;5.468;2022-10-15T09:53:51;0.63;;;0.50;;
53666;SDS011;39568;51.026;5.468;2022-10-15T09:56:26;0.75;;;0.68;;
53666;SDS011;39568;51.026;5.468;2022-10-15T09:58:59;0.30;;;0.30;;
53666;SDS011;39568;51.026;5.468;2022-10-15T10:01:26;1.27;;;0.55;;
53666;SDS011;39568;51.026;5.468;2022-10-15T10:04:08;3.55;;;0.65;;
53666;SDS011;39568;51.026;5.468;2022-10-15T10:06:42;1.05;;;0.43;;
53666;SDS011;39568;51.026;5.468;2022-10-15T10:09:11;0.28;;;0.28;;
53666;SDS011;39568;51.026;5.468;2022-10-15T10:11:46;0.77;;;0.77;;
53666;SDS011;39568;51.026;5.468;2022-10-15T10:14:20;0.68;;;0.68;;
53666;SDS011;39568;51.026;5.468;2022-10-15T10:19:43;0.63;;;0.57;;
53666;SDS011;39568;51.026;5.468;2022-10-15T10:22:12;0.40;;;0.40;;
53666;SDS011;39568;51.026;5.468;2022-10-15T10:24:42;0.95;;;0.60;;
53666;SDS011;39568;51.026;5.468;2022-10-15T10:27:19;9.65;;;0.50;;
53666;SDS011;39568;51.026;5.468;2022-10-15T10:29:48;3.30;;;0.38;;
53666;SDS011;39568;51.026;5.468;2022-10-15T10:32:21;0.40;;;0.40;;
53666;SDS011;39568;51.026;5.468;2022-10-15T10:34:53;1.90;;;0.40;;
53666;SDS011;39568;51.026;5.468;2022-10-15T10:37:21;0.20;;;0.20;;
53666;SDS011;39568;51.026;5.468;2022-10-15T10:39:54;3.05;;;0.40;;
53666;SDS011;39568;51.026;5.468;2022-10-15T10:42:23;1.85;;;0.40;;
53666;SDS011;39568;51.026;5.468;2022-10-15T10:45:06;0.63;;;0.20;;
53666;SDS011;39568;51.026;5.468;2022-10-15T10:47:43;0.28;;;0.28;;
53666;SDS011;39568;51.026;5.468;2022-10-15T10:52:56;0.40;;;0.40;;
53666;SDS011;39568;51.026;5.468;2022-10-15T10:55:39;0.47;;;0.47;;
53666;SDS011;39568;51.026;5.468;2022-10-15T10:58:08;0.55;;;0.55;;
53666;SDS011;39568;51.026;5.468;2022-10-15T11:00:43;5.00;;;3.28;;
53666;SDS011;39568;51.026;5.468;2022-10-15T11:03:15;2.03;;;1.48;;
53666;SDS011;39568;51.026;5.468;2022-10-15T11:05:49;0.30;;;0.30;;
53666;SDS011;39568;51.026;5.468;2022-10-15T11:08:22;0.77;;;0.55;;
53666;SDS011;39568;51.026;5.468;2022-10-15T11:10:58;0.20;;;0.20;;
53666;SDS011;39568;51.026;5.468;2022-10-15T11:13:40;0.47;;;0.47;;
53666;SDS011;39568;51.026;5.468;2022-10-15T11:16:20;0.95;;;0.80;;
53666;SDS011;39568;51.026;5.468;2022-10-15T11:19:01;1.93;;;1.83;;
53666;SDS011;39568;51.026;5.468;2022-10-15T11:21:42;6.65;;;6.07;;
53666;SDS011;39568;51.026;5.468;2022-10-15T11:24:20;1.40;;;1.33;;
53666;SDS011;39568;51.026;5.468;2022-10-15T11:27:01;6.13;;;5.47;;
53666;SDS011;39568;51.026;5.468;2022-10-15T11:29:39;2.63;;;2.42;;
53666;SDS011;39568;51.026;5.468;2022-10-15T11:32:17;1.02;;;0.90;;
53666;SDS011;39568;51.026;5.468;2022-10-15T11:35:02;0.70;;;0.40;;
53666;SDS011;39568;51.026;5.468;2022-10-15T11:37:41;0.57;;;0.40;;
53666;SDS011;39568;51.026;5.468;2022-10-15T11:40:18;0.55;;;0.50;;
53666;SDS011;39568;51.026;5.468;2022-10-15T11:42:57;1.17;;;0.52;;
53666;SDS011;39568;51.026;5.468;2022-10-15T11:45:38;3.87;;;0.47;;
53666;SDS011;39568;51.026;5.468;2022-10-15T11:48:15;4.22;;;0.55;;
53666;SDS011;39568;51.026;5.468;2022-10-15T11:50:48;0.40;;;0.40;;
53666;SDS011;39568;51.026;5.468;2022-10-15T11:53:31;0.73;;;0.73;;
53666;SDS011;39568;51.026;5.468;2022-10-15T11:56:12;0.65;;;0.65;;
53666;SDS011;39568;51.026;5.468;2022-10-15T11:58:42;0.65;;;0.57;;
53666;SDS011;39568;51.026;5.468;2022-10-15T12:03:48;0.68;;;0.68;;
53666;SDS011;39568;51.026;5.468;2022-10-15T12:06:18;0.90;;;0.90;;
53666;SDS011;39568;51.026;5.468;2022-10-15T12:08:54;1.10;;;0.82;;
53666;SDS011;39568;51.026;5.468;2022-10-15T12:11:26;0.50;;;0.50;;
53666;SDS011;39568;51.026;5.468;2022-10-15T12:14:04;0.65;;;0.65;;
53666;SDS011;39568;51.026;5.468;2022-10-15T12:19:13;0.30;;;0.30;;
53666;SDS011;39568;51.026;5.468;2022-10-15T12:21:50;0.50;;;0.50;;
53666;SDS011;39568;51.026;5.468;2022-10-15T12:24:51;5.88;;;0.60;;
53666;SDS011;39568;51.026;5.468;2022-10-15T12:27:29;0.52;;;0.52;;
53666;SDS011;39568;51.026;5.468;2022-10-15T12:30:17;0.55;;;0.55;;
53666;SDS011;39568;51.026;5.468;2022-10-15T12:32:59;2.28;;;0.70;;
53666;SDS011;39568;51.026;5.468;2022-10-15T12:38:07;0.55;;;0.55;;
53666;SDS011;39568;51.026;5.468;2022-10-15T12:40:38;0.43;;;0.43;;
53666;SDS011;39568;51.026;5.468;2022-10-15T12:43:11;0.60;;;0.60;;
53666;SDS011;39568;51.026;5.468;2022-10-15T12:45:47;0.80;;;0.70;;
53666;SDS011;39568;51.026;5.468;2022-10-15T12:48:19;0.90;;;0.90;;
53666;SDS011;39568;51.026;5.468;2022-10-15T12:51:03;6.25;;;1.83;;
53666;SDS011;39568;51.026;5.468;2022-10-15T12:53:59;0.70;;;0.70;;
53666;SDS011;39568;51.026;5.468;2022-10-15T12:56:35;0.95;;;0.88;;
53666;SDS011;39568;51.026;5.468;2022-10-15T13:01:54;0.73;;;0.73;;
53666;SDS011;39568;51.026;5.468;2022-10-15T13:04:37;0.70;;;0.70;;
53666;SDS011;39568;51.026;5.468;2022-10-15T13:07:10;0.70;;;0.70;;
53666;SDS011;39568;51.026;5.468;2022-10-15T13:09:39;1.35;;;1.25;;
53666;SDS011;39568;51.026;5.468;2022-10-15T13:12:16;9.13;;;1.52;;
53666;SDS011;39568;51.026;5.468;2022-10-15T13:14:48;4.20;;;1.50;;
53666;SDS011;39568;51.026;5.468;2022-10-15T13:17:20;1.65;;;1.05;;
53666;SDS011;39568;51.026;5.468;2022-10-15T13:19:51;4.95;;;1.23;;
53666;SDS011;39568;51.026;5.468;2022-10-15T13:22:23;0.93;;;0.93;;
53666;SDS011;39568;51.026;5.468;2022-10-15T13:24:58;10.82;;;1.65;;
53666;SDS011;39568;51.026;5.468;2022-10-15T13:27:28;4.68;;;1.27;;
53666;SDS011;39568;51.026;5.468;2022-10-15T13:29:57;2.92;;;1.52;;
53666;SDS011;39568;51.026;5.468;2022-10-15T13:32:25;1.38;;;1.00;;
53666;SDS011;39568;51.026;5.468;2022-10-15T13:34:53;1.85;;;1.48;;
53666;SDS011;39568;51.026;5.468;2022-10-15T13:37:23;1.52;;;1.42;;
53666;SDS011;39568;51.026;5.468;2022-10-15T13:39:55;1.42;;;1.42;;
53666;SDS011;39568;51.026;5.468;2022-10-15T13:42:23;2.45;;;2.30;;
53666;SDS011;39568;51.026;5.468;2022-10-15T13:44:59;2.70;;;2.50;;
53666;SDS011;39568;51.026;5.468;2022-10-15T13:47:29;2.40;;;2.20;;
53666;SDS011;39568;51.026;5.468;2022-10-15T13:50:11;2.95;;;2.15;;
53666;SDS011;39568;51.026;5.468;2022-10-15T13:52:45;1.58;;;1.52;;
53666;SDS011;39568;51.026;5.468;2022-10-15T13:55:17;1.75;;;1.65;;
53666;SDS011;39568;51.026;5.468;2022-10-15T13:57:46;6.30;;;4.97;;
53666;SDS011;39568;51.026;5.468;2022-10-15T14:00:26;1.50;;;1.40;;
53666;SDS011;39568;51.026;5.468;2022-10-15T14:03:14;3.50;;;1.00;;
53666;SDS011;39568;51.026;5.468;2022-10-15T14:05:43;0.90;;;0.90;;
53666;SDS011;39568;51.026;5.468;2022-10-15T14:08:14;1.40;;;1.00;;
53666;SDS011;39568;51.026;5.468;2022-10-15T14:10:51;1.33;;;1.27;;
53666;SDS011;39568;51.026;5.468;2022-10-15T14:13:20;0.90;;;0.90;;
53666;SDS011;39568;51.026;5.468;2022-10-15T14:15:50;6.50;;;1.00;;
53666;SDS011;39568;51.026;5.468;2022-10-15T14:18:32;27.33;;;4.43;;
53666;SDS011;39568;51.026;5.468;2022-10-15T14:21:01;1.98;;;0.85;;
53666;SDS011;39568;51.026;5.468;2022-10-15T14:23:29;2.47;;;0.80;;
53666;SDS011;39568;51.026;5.468;2022-10-15T14:25:57;2.42;;;1.25;;
53666;SDS011;39568;51.026;5.468;2022-10-15T14:28:25;0.70;;;0.70;;
53666;SDS011;39568;51.026;5.468;2022-10-15T14:30:55;0.35;;;0.35;;
53666;SDS011;39568;51.026;5.468;2022-10-15T14:33:30;1.55;;;1.40;;
53666;SDS011;39568;51.026;5.468;2022-10-15T14:36:06;0.50;;;0.50;;
53666;SDS011;39568;51.026;5.468;2022-10-15T14:38:39;1.77;;;1.45;;
53666;SDS011;39568;51.026;5.468;2022-10-15T14:41:17;8.10;;;3.45;;
53666;SDS011;39568;51.026;5.468;2022-10-15T14:43:59;1.02;;;0.95;;
53666;SDS011;39568;51.026;5.468;2022-10-15T14:46:43;1.23;;;1.13;;
53666;SDS011;39568;51.026;5.468;2022-10-15T14:49:17;1.15;;;0.75;;
53666;SDS011;39568;51.026;5.468;2022-10-15T14:52:00;0.73;;;0.73;;
53666;SDS011;39568;51.026;5.468;2022-10-15T14:54:32;0.70;;;0.70;;
53666;SDS011;39568;51.026;5.468;2022-10-15T14:57:02;0.70;;;0.70;;
53666;SDS011;39568;51.026;5.468;2022-10-15T14:59:33;4.05;;;0.80;;
53666;SDS011;39568;51.026;5.468;2022-10-15T15:02:03;0.77;;;0.77;;
53666;SDS011;39568;51.026;5.468;2022-10-15T15:04:37;1.20;;;0.57;;
53666;SDS011;39568;51.026;5.468;2022-10-15T15:07:09;1.70;;;0.98;;
53666;SDS011;39568;51.026;5.468;2022-10-15T15:09:40;0.77;;;0.77;;
53666;SDS011;39568;51.026;5.468;2022-10-15T15:12:14;4.40;;;0.93;;
53666;SDS011;39568;51.026;5.468;2022-10-15T15:14:43;3.47;;;3.28;;
53666;SDS011;39568;51.026;5.468;2022-10-15T15:17:15;3.30;;;0.98;;
53666;SDS011;39568;51.026;5.468;2022-10-15T15:19:44;0.70;;;0.70;;
53666;SDS011;39568;51.026;5.468;2022-10-15T15:22:16;2.58;;;1.23;;
53666;SDS011;39568;51.026;5.468;2022-10-15T15:27:22;1.92;;;0.90;;